Terminal Aerodrome Forecast
Issued by NWS

Home | Current Version | Previous Version | Text Only | Print | Product List | Glossary On
Versions: 1 2 3 4 5 6 7 8 9 10 11 12 13 14 15 16 17 18 19
000
FTUS43 KABR 240802 AAA
TAFATY
TAF AMD
KATY 240802Z 2408/2506 09006KT P6SM SCT060 BKN080 OVC120
      TEMPO 2410/2412 5SM -RA OVC035
     FM241300 08008KT P6SM SCT015 BKN040 BKN080
     FM241600 06009KT 5SM -RA BR OVC009=

USA.gov is the U.S. government's official web portal to all federal, state and local government web resources and services.